Time;durP1;ratioP1;P1;durP2;ratioP2;P2;SDS_P1;SDS_P2;PMS_P1;PMS_P2;Temp;Humidity;BMP_temperature;BMP_pressure;BME280_temperature;BME280_humidity;BME280_pressure;Samples;Min_cycle;Max_cycle;Signal;HPM_P1;HPM_P2
2023/03/18 00:00:47;;;;;;;8.70;5.17;;;;;;;8.10;57.99;100325.94;4966394;28;20049;-80
2023/03/18 00:03:14;;;;;;;10.03;6.13;;;;;;;8.09;58.70;100316.31;4945440;28;20134;-80
2023/03/18 00:05:41;;;;;;;8.83;5.23;;;;;;;8.02;59.35;100322.56;4950348;28;20062;-79
2023/03/18 00:08:08;;;;;;;9.53;5.33;;;;;;;8.10;58.61;100325.94;4936120;28;20037;-80
2023/03/18 00:10:35;;;;;;;9.20;5.30;;;;;;;8.06;59.26;100329.50;4983778;28;20239;-80
2023/03/18 00:13:04;;;;;;;8.47;4.67;;;;;;;8.07;58.60;100333.88;4943102;28;20045;-80
2023/03/18 00:15:31;;;;;;;8.03;4.87;;;;;;;8.11;58.66;100327.69;4970371;28;20050;-80
2023/03/18 00:17:58;;;;;;;6.63;4.40;;;;;;;8.08;58.73;100335.63;4976984;28;20042;-80
2023/03/18 00:20:37;;;;;;;8.97;5.23;;;;;;;8.14;58.22;100325.84;4953695;28;20043;-79
2023/03/18 00:23:07;;;;;;;7.97;5.27;;;;;;;8.16;58.88;100331.13;4952077;28;20093;-80
2023/03/18 00:25:37;;;;;;;8.90;4.90;;;;;;;8.01;58.96;100331.34;4970386;28;20045;-80
2023/03/18 00:28:05;;;;;;;8.67;5.00;;;;;;;8.14;58.44;100336.38;4959054;28;20039;-79
2023/03/18 00:30:36;;;;;;;8.57;5.20;;;;;;;8.14;59.95;100330.25;4988983;28;20101;-79
2023/03/18 00:33:03;;;;;;;8.57;5.03;;;;;;;8.13;58.70;100333.78;4940928;28;20070;-80
2023/03/18 00:35:31;;;;;;;8.30;4.97;;;;;;;8.08;58.63;100322.47;4943652;28;20074;-80
2023/03/18 00:37:59;;;;;;;9.80;5.30;;;;;;;8.18;57.74;100331.97;4959346;28;20451;-80
2023/03/18 00:40:41;;;;;;;6.70;4.83;;;;;;;8.28;57.96;100327.41;4972197;28;20043;-79
2023/03/18 00:43:09;;;;;;;9.63;5.33;;;;;;;8.21;57.98;100320.50;4956055;28;20043;-80
2023/03/18 00:45:38;;;;;;;7.27;5.23;;;;;;;8.22;58.00;100319.59;4973101;28;20117;-81
2023/03/18 00:48:06;;;;;;;7.47;4.60;;;;;;;8.16;57.72;100317.97;4955113;28;20504;-80
2023/03/18 00:50:34;;;;;;;7.63;5.03;;;;;;;8.22;57.57;100317.84;4977459;28;20038;-81
2023/03/18 00:53:01;;;;;;;8.20;4.93;;;;;;;8.24;57.21;100307.28;4959049;28;20436;-80
2023/03/18 00:55:28;;;;;;;8.57;4.80;;;;;;;8.35;56.80;100306.25;4972461;28;20085;-80
2023/03/18 00:57:56;;;;;;;8.27;5.20;;;;;;;8.31;57.15;100304.53;4955767;28;20492;-79
2023/03/18 01:00:24;;;;;;;8.07;5.03;;;;;;;8.37;57.44;100309.72;4952575;28;20039;-80
2023/03/18 01:02:55;;;;;;;9.47;5.50;;;;;;;8.38;57.56;100307.97;4972522;28;20042;-79
2023/03/18 01:05:21;;;;;;;7.40;4.50;;;;;;;8.39;57.18;100307.06;4955873;28;20039;-80
2023/03/18 01:07:48;;;;;;;9.83;5.17;;;;;;;8.34;57.04;100309.75;4969920;28;20038;-80
2023/03/18 01:10:15;;;;;;;9.93;4.70;;;;;;;8.36;56.88;100305.34;4955806;28;20043;-79
2023/03/18 01:12:45;;;;;;;7.77;5.50;;;;;;;8.35;58.16;100303.63;4937392;29;20050;-80
2023/03/18 01:15:17;;;;;;;11.23;5.67;;;;;;;8.36;58.64;100296.59;4971020;28;20047;-80
2023/03/18 01:17:45;;;;;;;9.30;5.20;;;;;;;8.22;58.51;100304.69;4969621;28;20039;-79
2023/03/18 01:20:15;;;;;;;8.43;4.67;;;;;;;8.14;58.42;100307.44;4954072;28;20046;-79
2023/03/18 01:22:43;;;;;;;8.40;5.20;;;;;;;8.22;57.98;100307.31;4957317;28;20051;-80
2023/03/18 01:25:11;;;;;;;8.47;5.00;;;;;;;8.15;57.40;100308.31;4972209;28;20035;-79
2023/03/18 01:27:39;;;;;;;8.90;4.90;;;;;;;8.03;58.54;100305.88;4989091;28;20042;-80
2023/03/18 01:30:08;;;;;;;8.37;4.60;;;;;;;8.02;58.64;100309.41;4951650;28;20074;-79
2023/03/18 01:32:35;;;;;;;7.23;4.60;;;;;;;8.10;58.14;100305.75;4957240;28;20267;-80
2023/03/18 01:35:02;;;;;;;7.37;4.47;;;;;;;7.95;59.15;100305.13;4973486;28;20062;-80
2023/03/18 01:37:30;;;;;;;7.03;4.37;;;;;;;7.95;58.44;100316.53;4957827;28;20388;-80
2023/03/18 01:39:57;;;;;;;9.90;5.33;;;;;;;8.05;57.83;100314.59;4970576;28;20043;-80
2023/03/18 01:42:23;;;;;;;7.07;5.13;;;;;;;8.02;58.15;100304.16;4952346;28;20419;-80
2023/03/18 01:45:18;;;;;;;11.33;5.37;;;;;;;8.05;58.26;100306.72;4964611;28;20204;-80
2023/03/18 01:47:45;;;;;;;8.00;4.95;;;;;;;8.01;57.93;100294.53;4955632;28;20053;-80
2023/03/18 01:50:21;;;;;;;8.43;4.53;;;;;;;8.03;58.87;100288.34;4949708;28;20049;-79
2023/03/18 01:53:03;;;;;;;9.07;4.97;;;;;;;7.96;57.91;100296.34;4970451;28;20045;-80
2023/03/18 01:55:31;;;;;;;7.13;4.50;;;;;;;7.93;58.24;100305.16;4953053;28;20042;-80
2023/03/18 01:58:00;;;;;;;8.47;5.43;;;;;;;8.02;57.11;100309.41;4971019;28;20037;-80
2023/03/18 02:00:27;;;;;;;8.47;4.33;;;;;;;7.88;58.22;100299.94;4967436;28;20043;-80
2023/03/18 02:02:54;;;;;;;8.13;4.37;;;;;;;7.82;58.46;100297.44;4955691;28;20481;-80
2023/03/18 02:05:23;;;;;;;10.27;5.27;;;;;;;7.92;56.82;100295.53;4941996;28;20047;-80
2023/03/18 02:07:50;;;;;;;10.43;5.00;;;;;;;7.88;57.55;100292.06;4967699;28;20038;-80
2023/03/18 02:10:20;;;;;;;7.07;4.83;;;;;;;7.90;57.96;100303.47;4955393;28;20133;-79
2023/03/18 02:12:53;;;;;;;11.33;6.00;;;;;;;7.96;57.36;100293.72;4969987;28;20043;-80
2023/03/18 02:15:22;;;;;;;8.37;4.60;;;;;;;8.02;56.58;100294.50;4955261;28;20043;-80
2023/03/18 02:18:08;;;;;;;7.30;4.60;;;;;;;7.96;57.74;100297.22;4954097;28;20443;-81
2023/03/18 02:20:47;;;;;;;7.53;4.63;;;;;;;8.05;56.89;100298.81;4938458;28;20043;-81
2023/03/18 02:23:42;;;;;;;8.07;5.13;;;;;;;7.98;57.70;100300.69;4963494;28;20046;-80
2023/03/18 02:26:33;;;;;;;6.13;4.22;;;;;;;7.91;57.99;100283.28;4969508;28;20129;-81
2023/03/18 02:29:03;;;;;;;9.90;4.63;;;;;;;7.86;58.79;100287.72;4953491;28;20031;-81
2023/03/18 02:31:33;;;;;;;9.30;4.57;;;;;;;7.90;57.64;100297.28;4954718;28;20130;-80
2023/03/18 02:34:00;;;;;;;8.87;5.50;;;;;;;7.86;57.01;100295.63;4969328;28;20460;-81
2023/03/18 02:36:30;;;;;;;8.60;4.40;;;;;;;7.86;56.99;100301.75;4955734;28;20065;-80
2023/03/18 02:38:59;;;;;;;9.40;4.90;;;;;;;7.83;57.20;100296.53;4957839;28;20484;-80
2023/03/18 02:41:30;;;;;;;8.70;5.17;;;;;;;7.76;57.94;100305.41;4952834;28;20051;-80
2023/03/18 02:43:57;;;;;;;8.43;4.70;;;;;;;7.74;57.85;100308.97;4970367;28;20043;-81
2023/03/18 02:46:35;;;;;;;9.13;4.40;;;;;;;7.71;57.99;100295.84;4957813;28;20038;-80
2023/03/18 02:49:04;;;;;;;6.63;4.80;;;;;;;7.61;58.04;100305.63;4953900;28;20047;-80
2023/03/18 02:51:30;;;;;;;6.87;5.00;;;;;;;7.63;58.46;100303.84;4949959;28;20097;-79
2023/03/18 02:54:07;;;;;;;8.33;4.90;;;;;;;7.80;58.03;100283.41;4952108;28;20046;-79
2023/03/18 02:56:34;;;;;;;7.93;4.70;;;;;;;7.69;58.28;100287.13;4951499;29;20039;-80
2023/03/18 02:59:00;;;;;;;6.53;4.73;;;;;;;7.63;58.41;100293.31;4972351;28;20066;-79
2023/03/18 03:01:27;;;;;;;10.47;4.93;;;;;;;7.55;58.35;100297.81;4969900;28;20485;-79
2023/03/18 03:03:55;;;;;;;7.40;4.57;;;;;;;7.56;58.37;100296.91;4971283;28;20042;-80
2023/03/18 03:06:22;;;;;;;9.87;4.67;;;;;;;7.52;58.38;100301.38;4976361;28;20042;-80
2023/03/18 03:08:49;;;;;;;7.77;4.83;;;;;;;7.48;59.23;100293.53;4967501;28;20405;-80
2023/03/18 03:11:15;;;;;;;6.30;4.77;;;;;;;7.44;58.04;100295.34;4964598;28;20074;-80
2023/03/18 03:13:44;;;;;;;8.70;5.07;;;;;;;7.53;59.07;100289.09;4954988;28;20089;-80
2023/03/18 03:16:12;;;;;;;7.17;4.50;;;;;;;7.34;59.23;100286.72;4951291;28;20408;-80
2023/03/18 03:18:39;;;;;;;6.80;4.10;;;;;;;7.31;59.73;100294.66;4987960;23;20074;-82
2023/03/18 03:21:07;;;;;;;8.90;5.07;;;;;;;7.22;60.64;100296.50;5018330;28;20039;-81
2023/03/18 03:23:34;;;;;;;6.67;4.23;;;;;;;7.22;60.68;100296.50;5002060;28;20038;-82
2023/03/18 03:26:01;;;;;;;6.87;4.37;;;;;;;7.29;60.02;100303.44;4973448;28;20423;-82
2023/03/18 03:28:28;;;;;;;8.17;4.83;;;;;;;7.16;60.58;100296.59;4967526;28;20140;-80
2023/03/18 03:30:55;;;;;;;7.43;4.07;;;;;;;7.12;61.15;100305.41;4963513;29;20054;-81
2023/03/18 03:33:22;;;;;;;7.43;4.20;;;;;;;7.18;60.97;100306.19;4950975;29;20066;-79
2023/03/18 03:35:49;;;;;;;13.20;4.83;;;;;;;7.32;59.31;100309.53;4961373;28;20046;-82
2023/03/18 03:38:16;;;;;;;8.97;4.90;;;;;;;7.33;59.34;100300.75;4962487;28;20035;-81
2023/03/18 03:40:45;;;;;;;8.23;4.60;;;;;;;7.27;60.21;100306.06;5016952;28;20387;-81
2023/03/18 03:43:13;;;;;;;8.87;4.27;;;;;;;7.24;61.17;100303.50;4996678;28;20046;-81
2023/03/18 03:45:40;;;;;;;5.87;4.47;;;;;;;7.27;61.85;100308.69;4997590;28;20139;-81
2023/03/18 03:48:07;;;;;;;7.63;4.30;;;;;;;7.20;61.42;100301.78;5001289;28;20089;-81
2023/03/18 03:50:35;;;;;;;6.07;4.47;;;;;;;7.17;62.00;100296.59;5001299;28;20115;-80
2023/03/18 03:53:04;;;;;;;6.23;4.37;;;;;;;7.28;60.95;100301.69;4984040;28;20034;-80
2023/03/18 03:55:32;;;;;;;9.47;4.73;;;;;;;7.34;60.00;100310.38;4987923;28;20038;-80
2023/03/18 03:57:59;;;;;;;8.23;5.40;;;;;;;7.24;61.09;100314.00;4970227;28;20431;-80
2023/03/18 04:00:27;;;;;;;8.63;4.53;;;;;;;7.22;62.28;100314.91;4966359;28;20051;-81
2023/03/18 04:02:53;;;;;;;8.17;4.50;;;;;;;7.21;61.56;100310.53;4965962;28;20039;-82
2023/03/18 04:05:23;;;;;;;8.23;5.20;;;;;;;7.28;60.91;100314.81;5011110;28;20069;-80
2023/03/18 04:07:51;;;;;;;8.30;4.87;;;;;;;7.32;62.47;100311.28;4979678;28;20053;-81
2023/03/18 04:10:19;;;;;;;6.93;5.13;;;;;;;7.26;61.79;100306.97;4985567;28;20058;-81
2023/03/18 04:12:46;;;;;;;6.60;4.23;;;;;;;7.25;62.01;100307.88;4980179;28;20046;-81
2023/03/18 04:15:15;;;;;;;6.33;4.43;;;;;;;7.13;62.55;100315.88;4981011;28;20046;-80
2023/03/18 04:17:41;;;;;;;6.40;4.23;;;;;;;7.09;63.72;100306.31;4993320;28;20043;-81
2023/03/18 04:20:09;;;;;;;5.90;4.10;;;;;;;7.05;62.50;100308.09;5018894;28;20054;-80
2023/03/18 04:22:36;;;;;;;10.40;5.07;;;;;;;7.08;62.65;100304.56;4967510;28;20131;-81
2023/03/18 04:25:04;;;;;;;7.73;4.30;;;;;;;7.12;63.08;100302.75;4975208;28;20046;-81
2023/03/18 04:27:32;;;;;;;7.20;4.80;;;;;;;7.10;62.89;100299.28;4985967;28;20047;-80
2023/03/18 04:29:59;;;;;;;5.97;4.47;;;;;;;7.21;62.44;100295.63;4979303;28;20046;-81
2023/03/18 04:32:26;;;;;;;7.57;4.60;;;;;;;7.14;62.80;100301.84;4985776;28;20067;-81
2023/03/18 04:34:53;;;;;;;8.40;4.93;;;;;;;7.28;61.53;100301.69;4976520;28;20049;-80
2023/03/18 04:37:20;;;;;;;6.30;4.50;;;;;;;7.08;61.85;100311.59;4957514;28;20556;-80
2023/03/18 04:39:47;;;;;;;7.97;4.70;;;;;;;7.03;61.74;100327.38;4984761;28;20408;-80
2023/03/18 04:42:13;;;;;;;7.63;4.50;;;;;;;7.01;62.75;100337.03;4965507;28;20101;-81
2023/03/18 04:44:40;;;;;;;7.47;3.97;;;;;;;6.94;62.86;100332.75;4967811;28;20035;-82
2023/03/18 04:47:07;;;;;;;6.73;4.60;;;;;;;6.98;62.53;100335.34;4976908;28;20039;-81
2023/03/18 04:49:34;;;;;;;7.17;5.10;;;;;;;7.03;62.87;100332.63;4956865;28;20172;-82
2023/03/18 04:52:01;;;;;;;8.50;4.33;;;;;;;7.01;62.32;100335.28;4970140;28;20047;-81
2023/03/18 04:54:27;;;;;;;7.03;3.77;;;;;;;6.89;62.90;100338.03;4976354;28;20066;-81
2023/03/18 04:56:54;;;;;;;7.47;4.50;;;;;;;6.91;63.00;100338.03;4959788;28;20042;-82
2023/03/18 04:59:21;;;;;;;8.67;4.47;;;;;;;6.86;62.82;100340.69;4990067;28;20503;-82
2023/03/18 05:01:47;;;;;;;8.67;4.70;;;;;;;6.86;62.56;100330.19;4966121;28;20106;-81
2023/03/18 05:04:14;;;;;;;6.87;4.67;;;;;;;6.76;64.53;100326.81;4972073;28;20041;-82
2023/03/18 05:06:41;;;;;;;6.80;4.50;;;;;;;6.73;64.73;100331.22;4965141;28;20031;-81
2023/03/18 05:09:08;;;;;;;7.97;4.40;;;;;;;6.67;64.42;100339.16;4974857;28;20105;-81
2023/03/18 05:11:35;;;;;;;6.50;4.37;;;;;;;6.60;64.87;100343.59;4976002;28;20049;-82
2023/03/18 05:14:02;;;;;;;8.20;5.27;;;;;;;6.53;64.83;100341.91;4972859;28;20047;-80
2023/03/18 05:16:28;;;;;;;8.03;4.57;;;;;;;6.47;65.20;100347.19;4975771;28;20046;-81
2023/03/18 05:18:55;;;;;;;7.37;4.20;;;;;;;6.50;66.00;100331.44;4972116;28;20118;-81
2023/03/18 05:21:22;;;;;;;7.80;4.73;;;;;;;6.47;66.36;100334.06;4975729;28;20089;-81
2023/03/18 05:23:49;;;;;;;7.27;4.27;;;;;;;6.42;66.99;100342.00;4976101;28;20085;-80
2023/03/18 05:26:16;;;;;;;7.37;4.60;;;;;;;6.36;66.67;100338.56;4981430;28;20043;-81
2023/03/18 05:28:43;;;;;;;7.47;4.53;;;;;;;6.36;66.93;100338.56;4961304;28;20489;-80
2023/03/18 05:31:10;;;;;;;7.83;4.30;;;;;;;6.40;66.64;100345.53;4975019;28;20057;-81
2023/03/18 05:33:37;;;;;;;8.30;5.13;;;;;;;6.41;65.91;100336.78;4975464;28;20054;-81
2023/03/18 05:36:04;;;;;;;8.63;4.17;;;;;;;6.31;66.09;100338.59;4973999;28;20039;-81
2023/03/18 05:38:31;;;;;;;5.83;3.87;;;;;;;6.29;66.68;100342.09;4974694;28;20057;-81
2023/03/18 05:40:57;;;;;;;8.37;4.27;;;;;;;6.29;67.16;100339.47;4983771;28;20062;-82
2023/03/18 05:43:25;;;;;;;6.70;4.70;;;;;;;6.35;66.78;100337.69;4974420;28;20550;-81
2023/03/18 05:45:51;;;;;;;8.97;4.53;;;;;;;6.31;67.29;100338.59;4976872;28;20068;-81
2023/03/18 05:48:18;;;;;;;6.37;4.20;;;;;;;6.37;66.99;100340.28;4942613;28;20285;-82
2023/03/18 05:50:45;;;;;;;8.27;4.50;;;;;;;6.33;67.07;100344.69;4953730;28;20046;-80
2023/03/18 05:53:15;;;;;;;9.53;4.60;;;;;;;6.31;67.24;100343.00;4984741;28;20066;-80
2023/03/18 05:55:42;;;;;;;9.40;4.70;;;;;;;6.25;69.18;100348.28;4970782;28;20039;-81
2023/03/18 05:58:08;;;;;;;6.07;4.37;;;;;;;6.20;70.09;100346.53;4988455;28;20094;-80
2023/03/18 06:00:36;;;;;;;7.07;4.90;;;;;;;6.24;70.53;100346.53;4953460;28;20050;-80
2023/03/18 06:03:03;;;;;;;8.83;5.73;;;;;;;6.27;69.29;100347.38;4971381;28;20042;-80
2023/03/18 06:05:30;;;;;;;14.03;6.87;;;;;;;6.31;68.16;100354.34;4939696;28;20046;-79
2023/03/18 06:07:58;;;;;;;12.90;7.23;;;;;;;6.27;68.42;100351.75;4983461;28;20061;-81
2023/03/18 06:10:25;;;;;;;11.93;7.30;;;;;;;6.31;68.34;100351.72;4964960;28;20038;-81
2023/03/18 06:12:54;;;;;;;8.17;5.73;;;;;;;6.31;68.26;100362.22;4951781;28;20035;-81
2023/03/18 06:15:21;;;;;;;12.27;4.83;;;;;;;6.28;68.87;100351.72;4983241;28;20035;-81
2023/03/18 06:17:48;;;;;;;9.83;5.00;;;;;;;6.30;69.46;100355.19;4971055;28;20559;-81
2023/03/18 06:20:17;;;;;;;9.87;5.50;;;;;;;6.42;68.71;100357.75;4972314;28;20035;-80
2023/03/18 06:22:48;;;;;;;8.20;4.87;;;;;;;6.40;68.41;100356.03;4961392;28;20041;-80
2023/03/18 06:25:17;;;;;;;5.77;4.17;;;;;;;6.41;68.22;100360.38;4985840;28;20049;-81
2023/03/18 06:27:43;;;;;;;7.37;4.10;;;;;;;6.43;68.50;100356.84;4961703;28;20539;-80
2023/03/18 06:30:12;;;;;;;6.50;4.03;;;;;;;6.50;69.65;100360.31;4966404;28;20050;-80
2023/03/18 06:32:39;;;;;;;8.97;4.77;;;;;;;6.62;68.73;100346.19;4967014;28;20046;-81
2023/03/18 06:35:07;;;;;;;10.03;5.47;;;;;;;6.68;67.96;100346.13;4967704;28;20081;-81
2023/03/18 06:37:33;;;;;;;7.63;4.20;;;;;;;6.70;68.77;100355.72;4979268;28;20045;-79
2023/03/18 06:40:00;;;;;;;7.73;4.80;;;;;;;6.81;67.78;100350.41;4985266;28;20046;-80
2023/03/18 06:42:27;;;;;;;8.80;4.30;;;;;;;6.96;66.24;100360.72;4955287;28;20073;-80
2023/03/18 06:44:53;;;;;;;7.33;4.53;;;;;;;7.08;66.17;100354.47;4985396;28;20050;-80
2023/03/18 06:47:21;;;;;;;7.70;4.10;;;;;;;7.09;67.16;100348.34;4978936;28;20047;-81
2023/03/18 06:49:49;;;;;;;7.60;4.93;;;;;;;7.17;67.10;100356.13;4988057;28;20035;-81
2023/03/18 06:52:17;;;;;;;7.23;4.60;;;;;;;7.32;65.09;100350.72;4984213;28;20042;-81
2023/03/18 06:54:45;;;;;;;7.50;4.50;;;;;;;7.31;66.44;100368.22;4968601;28;20126;-81
2023/03/18 06:57:12;;;;;;;8.47;5.10;;;;;;;7.41;67.24;100366.34;4969607;28;20046;-81
2023/03/18 06:59:39;;;;;;;6.97;4.50;;;;;;;7.53;64.81;100352.19;4973088;28;20043;-80
2023/03/18 07:02:07;;;;;;;6.93;4.33;;;;;;;7.52;64.47;100345.19;4974859;28;20045;-79
2023/03/18 07:04:34;;;;;;;8.63;4.90;;;;;;;7.54;65.51;100348.66;4962213;28;20062;-80
2023/03/18 07:07:01;;;;;;;6.70;4.53;;;;;;;7.70;62.85;100365.97;4942336;28;20058;-81
2023/03/18 07:09:27;;;;;;;7.87;4.57;;;;;;;7.68;63.22;100370.38;4958145;28;20034;-80
2023/03/18 07:11:54;;;;;;;8.37;5.13;;;;;;;7.75;63.45;100374.69;4943506;28;20510;-79
2023/03/18 07:14:21;;;;;;;7.07;4.53;;;;;;;7.94;63.54;100382.31;4978352;28;20050;-80
2023/03/18 07:16:49;;;;;;;7.33;4.63;;;;;;;7.95;62.81;100386.69;4955896;28;20102;-79
2023/03/18 07:19:17;;;;;;;9.23;5.03;;;;;;;8.14;61.95;100390.78;4987931;28;20429;-80
2023/03/18 07:21:45;;;;;;;6.67;4.50;;;;;;;8.32;60.65;100398.38;4962520;28;20034;-79
2023/03/18 07:24:12;;;;;;;8.87;5.23;;;;;;;8.53;60.55;100398.97;4975176;28;20129;-79
2023/03/18 07:26:38;;;;;;;8.60;5.23;;;;;;;8.53;60.65;100396.34;4973299;28;20043;-79
2023/03/18 07:29:05;;;;;;;7.83;4.27;;;;;;;8.68;60.34;100396.97;4977016;28;20062;-79
2023/03/18 07:31:32;;;;;;;6.57;4.90;;;;;;;8.78;60.95;100400.31;4974145;28;20130;-80
2023/03/18 07:33:59;;;;;;;7.67;4.57;;;;;;;8.85;60.60;100391.41;4976995;28;20051;-79
2023/03/18 07:36:26;;;;;;;9.87;5.57;;;;;;;8.94;58.10;100398.28;5007925;28;20076;-80
2023/03/18 07:38:55;;;;;;;7.43;4.73;;;;;;;9.06;59.19;100410.34;4975974;28;20129;-79
2023/03/18 07:41:22;;;;;;;9.47;4.67;;;;;;;9.15;58.20;100400.50;4960360;28;20053;-80
2023/03/18 07:43:48;;;;;;;7.53;4.57;;;;;;;9.30;57.39;100400.22;4977952;28;20046;-79
2023/03/18 07:46:15;;;;;;;7.40;4.53;;;;;;;9.26;58.20;100400.31;4963098;28;20049;-79
2023/03/18 07:48:42;;;;;;;9.90;4.67;;;;;;;9.21;58.37;100389.00;4978191;28;20043;-81
2023/03/18 07:51:09;;;;;;;8.93;5.10;;;;;;;9.25;59.14;100402.09;4963489;28;20043;-80
2023/03/18 07:53:36;;;;;;;8.73;4.83;;;;;;;9.28;59.14;100393.25;4984260;28;20039;-80
2023/03/18 07:56:03;;;;;;;10.33;5.10;;;;;;;9.26;59.71;100397.69;4994155;28;20039;-78
2023/03/18 07:58:30;;;;;;;7.77;4.80;;;;;;;9.35;58.81;100405.41;4979849;28;20046;-80
2023/03/18 08:00:58;;;;;;;7.97;4.70;;;;;;;9.50;58.30;100397.22;4981466;28;20046;-81
2023/03/18 08:03:25;;;;;;;8.27;5.00;;;;;;;9.51;59.43;100404.22;5010046;28;20042;-81
2023/03/18 08:05:52;;;;;;;8.90;5.00;;;;;;;9.55;57.76;100405.00;4983045;28;20046;-81
2023/03/18 08:08:18;;;;;;;7.43;4.87;;;;;;;9.59;57.38;100412.84;5011902;28;20038;-80
2023/03/18 08:10:45;;;;;;;6.87;3.97;;;;;;;9.69;57.28;100410.00;4982108;28;20042;-79
2023/03/18 08:13:12;;;;;;;7.53;4.80;;;;;;;9.75;56.79;100413.41;4978389;28;20043;-79
2023/03/18 08:15:39;;;;;;;7.80;4.97;;;;;;;9.94;56.19;100415.63;4980793;28;20039;-79
2023/03/18 08:18:07;;;;;;;6.73;4.43;;;;;;;9.96;56.49;100424.38;4985590;28;20042;-79
2023/03/18 08:20:34;;;;;;;7.63;5.00;;;;;;;10.11;57.72;100421.41;4963955;28;20050;-78
2023/03/18 08:23:03;;;;;;;6.90;5.50;;;;;;;10.30;58.00;100417.47;4948094;28;20058;-79
2023/03/18 08:25:29;;;;;;;6.43;4.83;;;;;;;10.39;59.27;100434.88;4947688;28;20046;-79
2023/03/18 08:27:57;;;;;;;7.93;5.13;;;;;;;10.60;57.31;100436.16;5013589;28;20035;-79
2023/03/18 08:30:27;;;;;;;7.78;4.88;;;;;;;10.70;57.27;100432.38;4960648;28;20039;-80
2023/03/18 08:32:55;;;;;;;8.32;4.93;;;;;;;10.89;57.73;100435.41;4987656;28;20493;-79
2023/03/18 08:35:22;;;;;;;7.97;4.53;;;;;;;11.08;57.12;100434.03;4993082;28;20043;-79
2023/03/18 08:37:50;;;;;;;6.55;4.38;;;;;;;11.14;56.14;100439.16;4947079;28;20145;-79
2023/03/18 08:40:18;;;;;;;10.27;6.05;;;;;;;11.25;55.07;100434.44;4969974;28;20031;-79
2023/03/18 08:42:45;;;;;;;6.03;5.00;;;;;;;11.18;55.05;100443.47;4955565;28;20420;-79
2023/03/18 08:45:12;;;;;;;8.02;4.72;;;;;;;11.27;55.78;100445.00;4967366;28;20053;-80
2023/03/18 08:47:40;;;;;;;7.80;4.97;;;;;;;11.36;56.28;100446.53;4973963;28;20504;-80
2023/03/18 08:50:07;;;;;;;6.85;4.75;;;;;;;11.47;55.72;100445.31;4968396;28;20031;-79
2023/03/18 08:52:36;;;;;;;7.25;4.90;;;;;;;11.54;56.72;100440.75;4957856;28;20575;-80
2023/03/18 08:55:04;;;;;;;7.03;5.28;;;;;;;11.63;54.57;100427.25;4971349;28;20058;-80
2023/03/18 08:57:31;;;;;;;7.70;5.63;;;;;;;11.70;56.29;100430.59;4982540;28;20041;-79
2023/03/18 08:59:58;;;;;;;8.60;5.32;;;;;;;11.76;55.34;100444.50;4938042;28;20047;-80
2023/03/18 09:02:26;;;;;;;6.72;5.15;;;;;;;11.70;56.57;100450.00;5010505;28;20039;-80
2023/03/18 09:04:53;;;;;;;8.02;5.45;;;;;;;11.83;57.02;100451.38;4973895;28;20046;-80
2023/03/18 09:07:20;;;;;;;7.57;5.07;;;;;;;11.89;57.22;100458.28;4971202;28;20066;-79
2023/03/18 09:09:47;;;;;;;14.20;6.28;;;;;;;11.90;56.28;100459.16;4939618;28;20050;-80
2023/03/18 09:12:14;;;;;;;11.23;6.03;;;;;;;12.00;56.04;100456.19;4971320;28;20115;-80
2023/03/18 09:14:42;;;;;;;14.55;7.18;;;;;;;11.97;56.33;100460.72;4954018;28;20045;-80
2023/03/18 09:17:09;;;;;;;18.63;7.28;;;;;;;12.10;56.97;100459.41;4985212;28;20038;-80
2023/03/18 09:19:36;;;;;;;8.60;5.28;;;;;;;12.43;56.14;100465.47;4971569;28;20107;-80
2023/03/18 09:22:03;;;;;;;8.60;5.10;;;;;;;12.66;54.45;100459.47;4968735;28;20046;-78
2023/03/18 09:24:30;;;;;;;8.55;5.45;;;;;;;12.80;53.18;100461.66;4974006;28;20042;-78
2023/03/18 09:26:58;;;;;;;8.95;5.03;;;;;;;12.90;54.92;100468.41;5047269;23;20371;-81
2023/03/18 09:29:26;;;;;;;8.98;4.97;;;;;;;13.07;53.63;100466.06;4988850;28;20470;-81
2023/03/18 09:31:55;;;;;;;9.55;5.43;;;;;;;13.19;53.78;100470.06;4958957;28;20423;-80
2023/03/18 09:34:22;;;;;;;6.55;5.05;;;;;;;13.46;53.18;100466.50;4978061;28;20070;-81
2023/03/18 09:36:50;;;;;;;9.13;5.57;;;;;;;13.63;52.33;100465.91;4977441;28;20038;-80
2023/03/18 09:39:18;;;;;;;7.07;5.07;;;;;;;13.79;52.65;100455.59;4961508;28;20102;-80
2023/03/18 09:42:43;;;;;;;6.45;4.88;;;;;;;14.01;51.95;100456.50;4992300;28;20650;-80
2023/03/18 09:45:21;;;;;;;9.20;5.38;;;;;;;14.15;52.30;100452.47;4984916;28;20052;-80
2023/03/18 09:48:06;;;;;;;7.85;5.70;;;;;;;14.14;51.71;100461.38;4976240;28;21498;-81
2023/03/18 09:50:36;;;;;;;;;;;;;;;14.10;52.87;100457.94;4981739;28;20101;-81
2023/03/18 09:53:12;;;;;;;9.00;4.93;;;;;;;14.37;52.27;100458.66;4967221;28;19972;-81
2023/03/18 09:55:45;;;;;;;8.38;4.88;;;;;;;14.52;51.92;100457.22;4973929;28;20049;-80
2023/03/18 09:58:45;;;;;;;8.50;4.78;;;;;;;14.67;52.00;100463.72;4970943;28;20092;-81
2023/03/18 10:01:12;;;;;;;6.18;4.43;;;;;;;14.69;52.04;100462.72;4973470;28;20130;-82
2023/03/18 10:03:46;;;;;;;5.88;4.28;;;;;;;14.83;51.98;100464.84;4955731;28;20046;-81
2023/03/18 10:06:19;;;;;;;9.73;4.18;;;;;;;14.89;50.75;100457.47;4990094;28;20085;-80
2023/03/18 10:08:55;;;;;;;6.25;4.15;;;;;;;14.94;51.51;100459.94;4991426;28;20527;-80
2023/03/18 10:11:29;;;;;;;6.93;4.70;;;;;;;15.00;53.22;100467.66;4981082;28;20050;-79
2023/03/18 10:14:26;;;;;;;6.95;4.75;;;;;;;15.16;53.20;100460.75;4956035;28;20084;-80
2023/03/18 10:16:57;;;;;;;9.50;4.95;;;;;;;15.33;53.91;100464.50;4993488;28;20109;-80
2023/03/18 10:19:24;;;;;;;9.20;4.85;;;;;;;15.31;53.22;100463.72;4968835;28;20423;-80
2023/03/18 10:22:22;;;;;;;9.32;4.93;;;;;;;15.29;53.80;100457.56;4974169;28;20046;-79
2023/03/18 10:24:51;;;;;;;8.00;5.95;;;;;;;15.35;53.82;100457.31;4989572;28;20518;-80
2023/03/18 10:27:57;;;;;;;16.83;15.15;;;;;;;15.24;54.71;100448.94;4987640;28;20048;-80
2023/03/18 10:30:53;;;;;;;9.10;6.60;;;;;;;15.23;54.79;100450.72;4970153;28;20069;-79
2023/03/18 10:33:45;;;;;;;63.25;36.97;;;;;;;15.16;56.88;100454.59;4992202;28;20047;-79
2023/03/18 10:36:18;;;;;;;10.18;6.53;;;;;;;15.17;56.94;100453.66;4989220;28;20460;-80
2023/03/18 10:38:50;;;;;;;7.40;5.25;;;;;;;15.33;58.57;100451.19;4971486;28;20039;-80
2023/03/18 10:41:34;;;;;;;7.07;4.78;;;;;;;15.62;57.75;100452.59;4957402;28;20088;-80
2023/03/18 10:44:05;;;;;;;7.82;6.32;;;;;;;15.90;55.60;100450.44;4986877;28;20096;-79
2023/03/18 10:46:33;;;;;;;9.55;5.55;;;;;;;16.04;54.85;100455.97;4972554;28;20097;-80
2023/03/18 10:49:15;;;;;;;9.32;5.00;;;;;;;16.23;54.89;100449.81;4971551;28;20082;-80
2023/03/18 10:51:54;;;;;;;8.63;5.45;;;;;;;16.34;55.20;100450.16;4973934;28;20221;-78
2023/03/18 10:54:42;;;;;;;7.88;5.40;;;;;;;16.55;55.62;100445.56;4968193;28;20042;-78
2023/03/18 10:57:31;;;;;;;;;;;;;;;;;;;;;
2023/03/18 10:59:58;;;;;;;7.80;5.50;;;;;;;16.87;54.79;100452.91;4979274;28;20049;-78
2023/03/18 11:02:32;;;;;;;8.32;5.97;;;;;;;16.91;53.30;100445.63;4985465;28;20425;-79
2023/03/18 11:05:05;;;;;;;7.55;5.13;;;;;;;17.20;55.25;100441.47;4954137;28;20050;-79
2023/03/18 11:07:32;;;;;;;7.95;5.05;;;;;;;17.41;54.45;100443.03;4985965;28;20081;-79
2023/03/18 11:10:27;;;;;;;8.40;5.38;;;;;;;17.63;53.59;100453.44;4984550;28;20977;-78
2023/03/18 11:12:58;;;;;;;7.70;4.78;;;;;;;17.62;54.83;100453.53;4945215;28;20093;-79
2023/03/18 11:15:25;;;;;;;8.93;5.47;;;;;;;17.69;54.20;100447.78;4971512;28;20092;-79
2023/03/18 11:17:57;;;;;;;6.30;5.32;;;;;;;17.81;53.38;100443.63;4967430;28;20550;-78
2023/03/18 11:20:46;;;;;;;6.95;4.72;;;;;;;17.93;54.95;100444.78;4988862;28;20657;-79
2023/03/18 11:23:47;;;;;;;9.18;5.10;;;;;;;18.10;53.96;100435.84;4985443;28;20042;-78
2023/03/18 11:26:23;;;;;;;7.70;5.55;;;;;;;17.98;53.51;100442.69;4974509;28;20070;-78
2023/03/18 11:28:55;;;;;;;7.25;5.18;;;;;;;18.10;55.58;100444.72;4989344;28;20066;-79
2023/03/18 11:31:21;;;;;;;8.82;5.30;;;;;;;18.13;53.79;100441.00;4963858;28;20059;-79
2023/03/18 11:33:48;;;;;;;10.02;5.72;;;;;;;18.09;55.22;100442.13;4985919;28;20108;-78
2023/03/18 11:36:19;;;;;;;10.82;5.57;;;;;;;18.16;56.41;100440.81;4988130;28;20064;-79
2023/03/18 11:39:02;;;;;;;11.02;5.50;;;;;;;18.16;56.06;100438.16;4988356;28;20046;-79
2023/03/18 11:41:29;;;;;;;9.23;5.17;;;;;;;18.19;55.50;100436.19;4972560;28;20120;-78
2023/03/18 11:44:05;;;;;;;7.07;4.57;;;;;;;18.31;55.68;100439.97;4981663;28;20482;-78